Time;durP1;ratioP1;P1;durP2;ratioP2;P2;SDS_P1;SDS_P2;PMS_P1;PMS_P2;Temp;Humidity;BMP_temperature;BMP_pressure;BME280_temperature;BME280_humidity;BME280_pressure;Samples;Min_cycle;Max_cycle;Signal;HPM_P1;HPM_P2
2022/10/07 00:00:21;;;;;;;12.15;6.40;;;15.60;99.90;;;;;;5049609;28;20037;-51
2022/10/07 00:03:26;;;;;;;8.82;5.57;;;15.50;99.90;;;;;;5049712;28;20040;-51
2022/10/07 00:06:30;;;;;;;11.02;5.60;;;15.60;99.90;;;;;;5050783;28;20048;-52
2022/10/07 00:09:34;;;;;;;13.50;5.60;;;15.50;99.90;;;;;;5050355;28;20048;-50
2022/10/07 00:12:37;;;;;;;11.60;6.18;;;15.50;99.90;;;;;;5050538;28;20055;-52
2022/10/07 00:15:41;;;;;;;7.60;3.60;;;15.50;99.90;;;;;;5050197;28;20510;-51
2022/10/07 00:18:50;;;;;;;6.68;3.92;;;15.40;99.90;;;;;;5050355;28;20095;-51
2022/10/07 00:21:54;;;;;;;8.95;3.60;;;15.40;99.90;;;;;;5050016;28;20041;-51
2022/10/07 00:24:58;;;;;;;9.30;3.83;;;15.30;99.90;;;;;;5049122;28;20056;-50
2022/10/07 00:28:02;;;;;;;12.30;5.40;;;15.30;99.90;;;;;;5049790;28;20058;-51
2022/10/07 00:31:13;;;;;;;12.68;6.78;;;15.20;99.90;;;;;;5050129;28;20048;-50
2022/10/07 00:34:17;;;;;;;7.97;4.68;;;15.20;99.90;;;;;;5049331;28;20410;-50
2022/10/07 00:37:22;;;;;;;6.63;3.78;;;15.20;99.90;;;;;;5049568;28;20033;-50
2022/10/07 00:40:26;;;;;;;11.00;3.72;;;15.20;99.90;;;;;;5049913;28;20033;-51
2022/10/07 00:43:31;;;;;;;6.40;3.63;;;15.10;99.90;;;;;;5049339;28;20502;-50
2022/10/07 00:46:39;;;;;;;8.32;3.60;;;15.10;99.90;;;;;;5049731;28;20021;-50
2022/10/07 00:49:53;;;;;;;7.22;3.80;;;15.00;99.90;;;;;;5048909;28;20068;-52
2022/10/07 00:53:01;;;;;;;6.03;4.05;;;14.90;99.90;;;;;;5048774;28;20040;-50
2022/10/07 00:56:06;;;;;;;7.57;4.05;;;14.90;99.90;;;;;;5049436;28;20048;-50
2022/10/07 00:59:12;;;;;;;9.20;4.63;;;14.90;99.90;;;;;;5048434;28;20037;-50
2022/10/07 01:02:17;;;;;;;8.90;4.20;;;14.80;99.90;;;;;;5049517;28;20527;-50
2022/10/07 01:05:21;;;;;;;5.97;3.10;;;14.80;99.90;;;;;;5049309;28;20116;-50
2022/10/07 01:08:25;;;;;;;10.07;5.60;;;14.70;99.90;;;;;;5049069;28;20051;-50
2022/10/07 01:11:43;;;;;;;7.43;4.35;;;14.70;99.90;;;;;;5049262;28;20052;-50
2022/10/07 01:15:09;;;;;;;18.10;7.85;;;14.80;99.90;;;;;;5048855;28;20041;-50
2022/10/07 01:18:15;;;;;;;13.95;6.93;;;14.70;99.90;;;;;;5053181;28;20063;-50
2022/10/07 01:21:38;;;;;;;19.55;9.05;;;14.80;99.90;;;;;;5053372;28;20048;-50
2022/10/07 01:24:49;;;;;;;14.00;8.48;;;14.80;99.90;;;;;;5052584;28;20067;-54
2022/10/07 01:28:13;;;;;;;17.85;8.30;;;14.80;99.90;;;;;;5052944;28;20039;-51
2022/10/07 01:31:23;;;;;;;12.73;7.18;;;14.80;99.90;;;;;;5052586;28;20044;-52
2022/10/07 01:34:28;;;;;;;10.82;6.78;;;14.70;99.90;;;;;;5051917;28;20056;-51
2022/10/07 01:37:36;;;;;;;11.43;6.30;;;14.70;99.90;;;;;;5053061;28;20048;-50
2022/10/07 01:40:54;;;;;;;10.35;4.90;;;14.70;99.90;;;;;;5052377;28;20048;-51
2022/10/07 01:44:00;;;;;;;6.20;4.10;;;14.60;99.90;;;;;;5052248;28;20052;-49
2022/10/07 01:47:04;;;;;;;7.20;3.20;;;14.50;99.90;;;;;;5052550;28;20044;-51
2022/10/07 01:50:12;;;;;;;7.10;3.90;;;14.60;99.90;;;;;;5053064;28;20051;-51
2022/10/07 01:53:37;;;;;;;6.78;3.72;;;14.50;99.90;;;;;;5051399;28;20037;-51
2022/10/07 01:57:05;;;;;;;8.48;4.43;;;14.50;99.90;;;;;;5052499;28;20037;-51
2022/10/07 02:00:11;;;;;;;7.35;4.10;;;14.60;99.90;;;;;;5051957;28;20041;-51
2022/10/07 02:03:45;;;;;;;6.13;2.90;;;14.60;99.90;;;;;;5051657;28;20049;-52
2022/10/07 02:07:18;;;;;;;7.13;2.75;;;14.40;99.90;;;;;;5051747;28;20040;-51
2022/10/07 02:10:27;;;;;;;5.63;2.70;;;14.30;99.90;;;;;;5051741;28;20104;-51
2022/10/07 02:13:57;;;;;;;8.98;3.85;;;14.40;99.90;;;;;;5051551;28;20399;-51
2022/10/07 02:17:15;;;;;;;11.63;3.95;;;14.40;99.90;;;;;;5051854;28;20044;-51
2022/10/07 02:20:24;;;;;;;8.40;4.30;;;16.00;99.90;;;;;;5051786;28;20510;-52
2022/10/07 02:23:28;;;;;;;6.70;3.28;;;14.50;99.90;;;;;;5052347;28;20052;-55
2022/10/07 02:26:34;;;;;;;5.75;3.53;;;14.50;99.90;;;;;;5050746;28;20226;-51
2022/10/07 02:29:41;;;;;;;4.97;3.70;;;14.50;99.90;;;;;;5051412;28;20044;-51
2022/10/07 02:32:56;;;;;;;6.05;3.60;;;14.40;99.90;;;;;;5051517;28;20064;-51
2022/10/07 02:36:04;;;;;;;9.55;4.00;;;14.10;99.90;;;;;;5050653;28;20064;-50
2022/10/07 02:39:10;;;;;;;13.45;4.20;;;14.20;99.90;;;;;;5051097;28;20056;-51
2022/10/07 02:42:34;;;;;;;11.57;3.92;;;14.00;99.90;;;;;;5050925;28;20043;-51
2022/10/07 02:45:44;;;;;;;7.25;4.10;;;14.00;99.90;;;;;;5050692;28;20044;-51
2022/10/07 02:49:03;;;;;;;10.30;3.55;;;14.10;99.90;;;;;;5050708;28;20037;-51
2022/10/07 02:52:14;;;;;;;8.38;3.83;;;14.20;99.90;;;;;;5050895;28;20406;-50
2022/10/07 02:55:22;;;;;;;6.03;3.50;;;14.10;99.90;;;;;;5038741;28;20052;-51
2022/10/07 02:58:26;;;;;;;6.75;3.45;;;14.10;99.90;;;;;;5050663;28;20045;-50
2022/10/07 03:01:36;;;;;;;6.18;3.92;;;14.00;99.90;;;;;;5050763;28;20048;-51
2022/10/07 03:04:41;;;;;;;7.63;4.70;;;14.00;99.90;;;;;;5050436;28;20059;-50
2022/10/07 03:07:49;;;;;;;9.63;4.40;;;14.10;99.90;;;;;;5050492;28;20044;-51
2022/10/07 03:10:53;;;;;;;9.52;4.30;;;14.10;99.90;;;;;;5050204;28;20516;-51
2022/10/07 03:13:57;;;;;;;9.63;4.40;;;14.00;99.90;;;;;;5050143;28;20041;-51
2022/10/07 03:17:02;;;;;;;10.25;5.10;;;13.90;99.90;;;;;;5050243;28;20046;-51
2022/10/07 03:20:08;;;;;;;17.27;8.07;;;13.80;99.90;;;;;;5050742;28;20037;-51
2022/10/07 03:23:12;;;;;;;17.33;8.07;;;13.70;99.90;;;;;;5050506;28;20044;-52
2022/10/07 03:26:18;;;;;;;19.35;11.73;;;13.50;99.90;;;;;;5050256;28;20040;-51
2022/10/07 03:29:25;;;;;;;15.60;9.27;;;13.50;99.90;;;;;;5050282;28;20518;-50
2022/10/07 03:32:29;;;;;;;17.73;9.43;;;13.40;99.90;;;;;;5050251;28;20040;-51
2022/10/07 03:35:33;;;;;;;12.98;8.65;;;13.40;99.90;;;;;;5049420;28;20091;-51
2022/10/07 03:38:38;;;;;;;23.00;9.40;;;13.30;99.90;;;;;;5049112;28;20426;-51
2022/10/07 03:41:42;;;;;;;13.95;8.52;;;13.30;99.90;;;;;;5049986;28;20424;-51
2022/10/07 03:44:50;;;;;;;15.55;7.95;;;13.30;99.90;;;;;;5049731;28;20047;-51
2022/10/07 03:47:56;;;;;;;17.00;9.82;;;13.20;99.90;;;;;;5049455;28;20044;-51
2022/10/07 03:51:01;;;;;;;24.42;10.70;;;13.20;99.90;;;;;;5049659;28;20047;-50
2022/10/07 03:54:07;;;;;;;15.00;9.57;;;13.10;99.90;;;;;;5049198;28;20082;-52
2022/10/07 03:57:56;;;;;;;20.48;10.88;;;13.10;99.90;;;;;;5049131;28;20402;-51
2022/10/07 04:00:40;;;;;;;24.00;11.10;;;13.10;99.90;;;;;;5049895;28;20048;-51
2022/10/07 04:03:45;;;;;;;17.70;10.88;;;13.10;99.90;;;;;;5049453;28;20048;-50
2022/10/07 04:06:48;;;;;;;17.30;11.23;;;13.10;99.90;;;;;;5050287;28;20047;-53
2022/10/07 04:09:52;;;;;;;20.30;10.98;;;13.10;99.90;;;;;;5049785;28;20044;-50
2022/10/07 04:12:56;;;;;;;14.15;9.52;;;13.10;99.90;;;;;;5049704;28;20059;-50
2022/10/07 04:16:09;;;;;;;14.75;9.82;;;13.00;99.90;;;;;;5049033;28;20044;-51
2022/10/07 04:19:15;;;;;;;17.90;10.52;;;12.90;99.90;;;;;;5049543;28;20036;-50
2022/10/07 04:22:20;;;;;;;16.40;9.90;;;12.90;99.90;;;;;;5049425;28;20403;-54
2022/10/07 04:25:32;;;;;;;17.30;9.50;;;13.00;99.90;;;;;;5048642;28;20052;-51
2022/10/07 04:28:39;;;;;;;17.98;9.90;;;13.00;99.90;;;;;;5049180;28;20047;-51
2022/10/07 04:31:47;;;;;;;12.38;8.38;;;12.90;99.90;;;;;;5049084;28;20065;-51
2022/10/07 04:34:52;;;;;;;12.77;8.73;;;13.00;99.90;;;;;;5048913;28;20403;-52
2022/10/07 04:37:56;;;;;;;17.73;8.75;;;13.00;99.90;;;;;;5048740;28;20498;-51
2022/10/07 04:41:05;;;;;;;12.35;7.65;;;12.90;99.90;;;;;;5049155;28;20044;-52
2022/10/07 04:44:10;;;;;;;12.20;8.05;;;12.90;99.90;;;;;;5048707;28;20067;-50
2022/10/07 04:47:21;;;;;;;14.88;8.20;;;13.00;99.90;;;;;;5049368;28;20506;-50
2022/10/07 04:50:25;;;;;;;12.27;7.47;;;13.00;99.90;;;;;;5048649;28;20051;-51
2022/10/07 04:53:36;;;;;;;12.90;7.15;;;12.90;99.90;;;;;;5049443;28;20075;-51
2022/10/07 04:56:40;;;;;;;15.00;7.55;;;12.90;99.90;;;;;;5048313;28;20056;-50
2022/10/07 04:59:47;;;;;;;16.38;7.57;;;12.80;99.90;;;;;;5048776;28;20047;-52
2022/10/07 05:02:57;;;;;;;11.75;7.45;;;12.70;99.90;;;;;;5048440;28;20039;-50
2022/10/07 05:06:05;;;;;;;10.68;7.32;;;12.70;99.90;;;;;;5048644;28;20052;-51
2022/10/07 05:09:10;;;;;;;17.13;7.10;;;12.70;99.90;;;;;;5048521;28;20060;-50
2022/10/07 05:12:18;;;;;;;13.23;6.45;;;12.70;99.90;;;;;;5048622;28;20052;-51
2022/10/07 05:15:23;;;;;;;9.27;6.20;;;12.70;99.90;;;;;;5048504;28;20041;-51
2022/10/07 05:18:28;;;;;;;14.90;6.45;;;12.60;99.90;;;;;;5049115;28;20044;-50
2022/10/07 05:21:35;;;;;;;13.52;6.05;;;12.60;99.90;;;;;;5048539;28;20052;-52
2022/10/07 05:24:41;;;;;;;10.70;6.05;;;12.60;99.90;;;;;;5036562;28;20112;-52
2022/10/07 05:27:50;;;;;;;10.60;5.35;;;12.60;99.90;;;;;;5048055;28;20081;-52
2022/10/07 05:31:03;;;;;;;15.15;6.82;;;12.70;99.90;;;;;;5048265;28;20049;-51
2022/10/07 05:34:07;;;;;;;12.50;5.70;;;12.80;99.90;;;;;;5048111;28;20044;-52
2022/10/07 05:37:14;;;;;;;10.15;4.80;;;12.80;99.90;;;;;;5047524;28;20052;-53
2022/10/07 05:40:20;;;;;;;10.02;4.63;;;12.90;99.90;;;;;;5048780;28;20052;-51
2022/10/07 05:43:27;;;;;;;9.23;4.65;;;15.50;99.90;;;;;;5048556;28;20515;-50
2022/10/07 05:46:31;;;;;;;11.25;5.38;;;13.10;99.90;;;;;;5048256;28;20222;-50
2022/10/07 05:49:35;;;;;;;9.70;5.13;;;13.30;99.90;;;;;;5039693;28;20043;-50
2022/10/07 05:52:41;;;;;;;11.40;4.47;;;13.40;99.90;;;;;;5038769;28;20032;-52
2022/10/07 05:55:45;;;;;;;14.23;5.50;;;13.60;99.90;;;;;;5040927;28;20067;-51
2022/10/07 05:58:51;;;;;;;12.32;6.47;;;13.90;99.90;;;;;;5044769;28;20056;-51
2022/10/07 06:01:58;;;;;;;9.40;5.05;;;14.30;99.90;;;;;;5030612;28;20044;-51
2022/10/07 06:05:04;;;;;;;9.00;5.15;;;14.30;99.90;;;;;;5035090;28;20052;-51
2022/10/07 06:08:08;;;;;;;7.78;4.25;;;15.00;99.90;;;;;;5047964;28;20495;-50
2022/10/07 06:14:37;;;;;;;6.38;3.72;;;17.80;99.90;;;;;;5043147;28;20473;-51
2022/10/07 06:17:44;;;;;;;9.45;4.03;;;18.30;99.90;;;;;;5041292;28;20060;-50
2022/10/07 06:20:57;;;;;;;8.95;3.63;;;19.90;99.90;;;;;;5051804;28;20048;-51
2022/10/07 06:24:02;;;;;;;8.60;3.10;;;22.10;99.90;;;;;;5051885;28;20438;-53
2022/10/07 06:27:11;;;;;;;9.15;4.03;;;23.90;99.90;;;;;;5040142;28;20072;-51
2022/10/07 06:30:16;;;;;;;6.50;3.85;;;25.00;99.90;;;;;;5051543;28;20044;-52
2022/10/07 06:33:21;;;;;;;5.82;3.15;;;26.40;99.90;;;;;;5038450;28;20505;-53
2022/10/07 06:36:25;;;;;;;10.80;3.55;;;27.50;99.90;;;;;;5043928;28;20052;-53
2022/10/07 06:39:32;;;;;;;5.30;3.33;;;28.10;99.40;;;;;;5045439;28;20036;-51
2022/10/07 06:42:36;;;;;;;8.18;3.15;;;28.10;98.60;;;;;;5050089;28;20412;-55
2022/10/07 06:46:02;;;;;;;9.57;3.88;;;28.20;98.10;;;;;;5051968;28;20048;-51
2022/10/07 06:49:06;;;;;;;8.93;4.15;;;27.20;98.60;;;;;;5030746;28;20044;-55
2022/10/07 06:52:11;;;;;;;31.13;21.63;;;26.20;99.60;;;;;;5046861;28;20498;-54
2022/10/07 06:55:16;;;;;;;8.88;6.28;;;24.90;99.90;;;;;;5048805;28;20060;-52
2022/10/07 06:58:20;;;;;;;13.55;4.88;;;24.10;99.90;;;;;;5046544;28;20066;-53
2022/10/07 07:01:25;;;;;;;7.88;4.38;;;24.60;99.90;;;;;;5030872;28;20510;-50
2022/10/07 07:04:29;;;;;;;8.25;4.40;;;25.30;99.90;;;;;;5032033;28;20328;-51
2022/10/07 07:07:33;;;;;;;10.10;4.00;;;25.40;99.90;;;;;;5030507;28;20048;-53
2022/10/07 07:10:42;;;;;;;6.72;3.63;;;25.80;99.90;;;;;;5030476;28;20420;-54
2022/10/07 07:13:48;;;;;;;9.98;3.83;;;26.80;99.30;;;;;;5033341;28;20049;-51
2022/10/07 07:16:52;;;;;;;5.78;3.47;;;27.60;98.10;;;;;;5041547;28;20048;-52
2022/10/07 07:19:57;;;;;;;6.07;3.30;;;27.90;97.90;;;;;;5050346;28;20045;-52
2022/10/07 07:23:05;;;;;;;7.85;3.72;;;28.50;96.20;;;;;;5030481;28;20049;-53
2022/10/07 07:26:09;;;;;;;7.57;3.53;;;28.50;96.40;;;;;;5031846;28;20037;-51
2022/10/07 07:29:15;;;;;;;4.80;3.15;;;28.40;96.20;;;;;;5049790;28;20040;-51
2022/10/07 07:32:32;;;;;;;7.57;3.50;;;28.70;96.30;;;;;;5042114;28;20064;-51
2022/10/07 07:35:40;;;;;;;8.38;3.75;;;29.10;96.00;;;;;;5039999;28;20052;-50
2022/10/07 07:38:53;;;;;;;6.75;3.25;;;28.00;96.20;;;;;;5041107;28;20040;-53
2022/10/07 07:41:59;;;;;;;5.78;3.08;;;27.50;96.80;;;;;;5030084;28;20029;-54
2022/10/07 07:45:05;;;;;;;5.55;3.45;;;27.80;96.60;;;;;;5042936;28;20032;-54
2022/10/07 07:48:12;;;;;;;4.45;3.20;;;26.30;97.00;;;;;;5049562;28;20048;-53
2022/10/07 07:51:17;;;;;;;6.05;3.42;;;26.80;97.30;;;;;;5049414;28;20250;-52
2022/10/07 07:54:21;;;;;;;6.20;3.50;;;27.40;96.70;;;;;;5041214;28;20518;-53
2022/10/07 07:57:28;;;;;;;6.90;3.35;;;27.70;96.60;;;;;;5041534;28;20046;-52
2022/10/07 08:00:35;;;;;;;4.05;3.50;;;29.00;95.10;;;;;;5043352;28;20049;-54
2022/10/07 08:03:45;;;;;;;8.82;3.70;;;30.00;94.50;;;;;;5049274;28;20044;-53
2022/10/07 08:06:50;;;;;;;7.40;3.90;;;30.80;93.50;;;;;;5038828;28;20056;-55
2022/10/07 08:09:54;;;;;;;7.25;3.55;;;30.60;93.70;;;;;;5044819;28;20056;-51
2022/10/07 08:12:58;;;;;;;8.80;4.18;;;29.80;93.60;;;;;;5040748;28;20041;-55
2022/10/07 08:16:03;;;;;;;12.23;5.97;;;28.70;94.20;;;;;;5028759;28;20550;-54
2022/10/07 08:19:08;;;;;;;9.80;7.35;;;28.70;94.30;;;;;;5043581;28;20048;-53
2022/10/07 08:22:16;;;;;;;10.75;6.65;;;28.70;94.60;;;;;;5048051;28;20048;-55
2022/10/07 08:25:23;;;;;;;8.45;5.10;;;29.80;94.40;;;;;;5035264;28;20123;-53
2022/10/07 08:28:27;;;;;;;6.93;3.90;;;30.40;93.70;;;;;;5042801;28;20530;-51
2022/10/07 08:31:33;;;;;;;8.23;4.03;;;31.80;92.30;;;;;;5029191;28;20037;-54
2022/10/07 08:34:37;;;;;;;16.48;8.80;;;32.20;92.40;;;;;;5029818;28;20619;-51
2022/10/07 08:37:41;;;;;;;15.88;8.90;;;32.30;91.80;;;;;;5049758;28;20048;-51
2022/10/07 08:40:51;;;;;;;27.92;18.48;;;31.80;91.70;;;;;;5043406;28;20040;-55
2022/10/07 08:43:57;;;;;;;25.48;18.52;;;31.10;92.10;;;;;;5030876;28;20045;-51
2022/10/07 08:47:44;;;;;;;29.80;18.98;;;31.60;92.30;;;;;;5031863;28;20052;-51
2022/10/07 08:51:09;;;;;;;25.10;18.27;;;30.60;91.80;;;;;;5076585;28;20509;-51
2022/10/07 08:54:16;;;;;;;23.92;16.40;;;29.80;92.70;;;;;;5048098;28;20060;-51
2022/10/07 08:58:04;;;;;;;20.58;14.48;;;30.10;93.20;;;;;;5034302;28;20407;-51
2022/10/07 09:01:21;;;;;;;14.63;9.38;;;31.80;91.70;;;;;;5046169;28;20447;-54
2022/10/07 09:04:53;;;;;;;20.13;10.45;;;33.30;90.90;;;;;;5046836;28;20052;-51
2022/10/07 09:08:03;;;;;;;19.02;11.98;;;34.00;89.30;;;;;;5029605;28;20041;-51
2022/10/07 09:11:14;;;;;;;13.20;7.85;;;35.90;87.60;;;;;;5037303;28;20056;-51
2022/10/07 09:14:36;;;;;;;13.45;10.30;;;34.40;86.40;;;;;;5038717;28;20048;-53
2022/10/07 09:17:48;;;;;;;11.23;8.73;;;34.40;88.20;;;;;;5031820;28;20052;-50
2022/10/07 09:20:55;;;;;;;12.73;8.70;;;34.80;87.40;;;;;;5029787;28;20052;-50
2022/10/07 09:24:23;;;;;;;12.35;9.10;;;34.20;87.50;;;;;;5029704;28;20523;-50
2022/10/07 09:27:28;;;;;;;16.98;7.97;;;34.30;87.80;;;;;;5035240;28;20048;-50
2022/10/07 09:30:32;;;;;;;10.05;7.05;;;34.70;87.50;;;;;;5042300;28;20042;-50
2022/10/07 09:33:41;;;;;;;9.05;5.93;;;36.10;86.00;;;;;;5041143;28;20044;-52
2022/10/07 09:37:11;;;;;;;7.28;5.57;;;36.80;84.90;;;;;;5048556;28;20045;-55
2022/10/07 09:40:21;;;;;;;8.65;5.10;;;35.00;83.20;;;;;;5041327;28;20030;-55
2022/10/07 09:43:26;;;;;;;7.20;5.10;;;34.80;83.30;;;;;;5032460;28;20048;-55
2022/10/07 09:46:52;;;;;;;9.95;4.55;;;34.00;84.20;;;;;;5049492;28;20033;-55
2022/10/07 09:49:58;;;;;;;4.85;3.42;;;35.10;82.50;;;;;;5048779;28;20260;-49
2022/10/07 09:53:20;;;;;;;6.20;4.05;;;38.00;81.80;;;;;;5055448;28;20051;-55
2022/10/07 09:56:55;;;;;;;9.52;4.22;;;36.40;79.40;;;;;;5037243;28;20045;-51
2022/10/07 10:00:11;;;;;;;8.15;4.40;;;37.70;79.10;;;;;;5034045;28;20052;-50
2022/10/07 10:03:17;;;;;;;7.63;5.53;;;36.50;80.30;;;;;;5030094;28;20048;-56
2022/10/07 10:06:22;;;;;;;7.57;4.80;;;34.90;81.80;;;;;;5040160;28;20028;-54
2022/10/07 10:09:27;;;;;;;6.35;4.40;;;35.20;82.30;;;;;;5045637;28;20049;-54
2022/10/07 10:12:43;;;;;;;7.13;4.15;;;37.20;80.00;;;;;;5041173;28;20044;-53
2022/10/07 10:15:47;;;;;;;7.30;4.70;;;36.60;78.00;;;;;;5047103;28;20510;-50
2022/10/07 10:18:57;;;;;;;7.25;4.45;;;34.60;79.50;;;;;;5045792;28;20044;-50
2022/10/07 10:22:01;;;;;;;6.25;4.63;;;34.30;82.50;;;;;;5040423;28;20036;-50
2022/10/07 10:29:19;;;;;;;8.20;3.45;;;35.60;81.50;;;;;;5033311;28;20052;-52
2022/10/07 10:32:46;;;;;;;6.03;4.20;;;36.60;80.20;;;;;;5045396;28;20044;-50
2022/10/07 10:36:31;;;;;;;6.85;3.63;;;38.20;77.70;;;;;;5040959;28;20049;-54
2022/10/07 10:39:36;;;;;;;7.95;4.30;;;35.30;78.60;;;;;;5060010;28;20036;-51
2022/10/07 10:42:55;;;;;;;4.60;3.45;;;38.30;76.40;;;;;;5068648;28;20044;-52
2022/10/07 10:45:58;;;;;;;7.13;3.33;;;39.70;74.70;;;;;;5049417;28;20033;-55
2022/10/07 10:49:32;;;;;;;8.95;3.95;;;40.50;71.10;;;;;;5037750;28;20041;-54
2022/10/07 10:53:00;;;;;;;7.53;4.90;;;35.90;73.00;;;;;;5043474;28;20671;-54
2022/10/07 10:56:30;;;;;;;4.88;2.90;;;35.10;76.20;;;;;;5050243;28;20047;-50
2022/10/07 10:59:57;;;;;;;4.80;2.58;;;38.20;75.10;;;;;;5037145;28;20045;-53
2022/10/07 11:03:32;;;;;;;6.43;3.80;;;38.40;72.50;;;;;;5044096;28;20041;-56
2022/10/07 11:06:40;;;;;;;3.97;2.92;;;38.90;71.50;;;;;;5038447;28;20033;-56
2022/10/07 11:09:50;;;;;;;8.35;4.15;;;40.80;69.90;;;;;;5049603;28;20377;-55
2022/10/07 11:13:20;;;;;;;5.25;3.03;;;39.90;69.20;;;;;;5038648;28;20052;-51
2022/10/07 11:16:53;;;;;;;4.30;2.47;;;38.20;70.70;;;;;;5043658;28;20040;-56
2022/10/07 11:20:13;;;;;;;4.60;2.40;;;40.50;70.20;;;;;;5040842;28;20036;-55
2022/10/07 11:23:31;;;;;;;4.82;2.83;;;35.60;71.20;;;;;;5043488;28;20041;-51
2022/10/07 11:26:55;;;;;;;3.58;2.03;;;37.40;71.00;;;;;;5043687;28;20055;-55
2022/10/07 11:30:12;;;;;;;3.05;2.15;;;38.90;71.00;;;;;;5042437;28;20407;-51
2022/10/07 11:33:27;;;;;;;4.10;2.13;;;39.90;68.40;;;;;;5031521;28;20049;-56
2022/10/07 11:36:36;;;;;;;5.60;1.75;;;37.60;67.70;;;;;;5040282;28;20048;-50
2022/10/07 11:39:40;;;;;;;3.75;1.90;;;37.90;69.80;;;;;;5037416;28;20104;-51
2022/10/07 11:42:49;;;;;;;3.25;1.85;;;38.80;68.50;;;;;;5044775;28;20388;-50
2022/10/07 11:46:00;;;;;;;4.25;2.45;;;40.50;67.60;;;;;;5042333;28;20502;-52
2022/10/07 11:49:11;;;;;;;4.38;2.60;;;40.30;67.50;;;;;;5050616;28;20074;-52
2022/10/07 11:52:32;;;;;;;6.03;2.40;;;41.40;67.60;;;;;;5030169;28;20044;-50
2022/10/07 11:55:44;;;;;;;4.57;3.00;;;41.90;67.40;;;;;;5037993;28;20045;-53
2022/10/07 11:58:59;;;;;;;5.50;3.03;;;42.70;66.50;;;;;;5040242;28;20041;-51
2022/10/07 12:02:28;;;;;;;7.38;2.55;;;43.70;64.90;;;;;;5043841;28;20048;-48
2022/10/07 12:05:35;;;;;;;5.75;2.72;;;44.00;63.10;;;;;;5041102;28;20421;-52
2022/10/07 12:08:41;;;;;;;5.18;2.42;;;38.30;64.90;;;;;;5040589;28;20060;-51
2022/10/07 12:11:46;;;;;;;6.53;2.70;;;38.00;67.40;;;;;;5038871;28;20055;-52
2022/10/07 12:14:59;;;;;;;4.95;2.17;;;39.50;66.30;;;;;;5040711;28;20052;-49
2022/10/07 12:18:06;;;;;;;3.17;2.10;;;41.50;65.00;;;;;;5039670;28;20581;-52
2022/10/07 12:21:13;;;;;;;;;;;42.00;62.80;;;;;;5039866;28;20057;-51
2022/10/07 12:24:17;;;;;;;4.97;2.45;;;38.10;63.40;;;;;;5040414;28;20303;-51
2022/10/07 12:27:28;;;;;;;3.10;2.38;;;40.30;63.40;;;;;;5039552;28;20440;-55
2022/10/07 12:30:41;;;;;;;4.13;2.63;;;38.70;64.10;;;;;;5033459;28;20416;-56
2022/10/07 12:33:45;;;;;;;3.03;2.22;;;40.40;64.30;;;;;;5037343;28;20135;-54
2022/10/07 12:36:49;;;;;;;4.97;2.58;;;41.60;62.60;;;;;;5040140;28;20041;-55
2022/10/07 12:39:53;;;;;;;4.18;2.22;;;41.70;61.00;;;;;;5036793;28;20032;-50
2022/10/07 12:43:09;;;;;;;3.90;2.60;;;40.30;61.80;;;;;;5034561;28;20044;-51
2022/10/07 12:46:17;;;;;;;2.70;2.15;;;38.20;63.00;;;;;;5038317;28;20524;-54
2022/10/07 12:49:35;;;;;;;4.75;2.00;;;40.60;63.30;;;;;;5029007;28;20439;-52
2022/10/07 12:52:53;;;;;;;4.93;2.55;;;41.60;61.30;;;;;;5033917;28;20038;-53
2022/10/07 12:55:57;;;;;;;6.03;2.45;;;42.20;60.50;;;;;;5035475;28;20040;-50
2022/10/07 12:59:48;;;;;;;3.80;2.20;;;42.90;60.40;;;;;;5042244;28;20040;-50
2022/10/07 13:03:13;;;;;;;4.55;2.70;;;43.30;60.50;;;;;;5037598;28;20044;-52
2022/10/07 13:06:38;;;;;;;3.85;1.80;;;41.00;60.80;;;;;;5033833;28;20042;-51
2022/10/07 13:10:13;;;;;;;2.60;1.95;;;41.00;61.40;;;;;;5038611;28;20508;-54
2022/10/07 13:13:33;;;;;;;3.65;2.05;;;41.30;59.70;;;;;;5046112;28;20033;-51
2022/10/07 13:16:43;;;;;;;5.45;2.53;;;41.60;59.30;;;;;;5038683;28;20049;-50
2022/10/07 13:20:14;;;;;;;6.82;3.38;;;41.70;61.10;;;;;;5037766;28;20037;-50
2022/10/07 13:23:20;;;;;;;6.93;3.03;;;40.90;61.80;;;;;;5040328;28;20025;-51
2022/10/07 13:26:25;;;;;;;4.40;2.97;;;37.30;63.10;;;;;;5035569;28;20040;-50
2022/10/07 13:29:32;;;;;;;4.50;2.58;;;37.60;63.00;;;;;;5050288;28;20085;-50
2022/10/07 13:32:36;;;;;;;5.53;3.13;;;38.70;61.50;;;;;;5041809;28;20048;-51
2022/10/07 13:35:40;;;;;;;4.38;3.17;;;39.50;61.50;;;;;;5043027;28;20048;-50
2022/10/07 13:38:46;;;;;;;4.10;2.88;;;40.20;62.10;;;;;;5045237;28;20420;-51
2022/10/07 13:41:58;;;;;;;5.07;2.67;;;41.20;60.70;;;;;;5035701;28;20033;-51
2022/10/07 13:45:02;;;;;;;5.90;2.38;;;40.70;60.20;;;;;;5050358;28;20051;-51
2022/10/07 13:48:17;;;;;;;4.13;2.10;;;38.00;62.50;;;;;;5049851;28;20040;-50
2022/10/07 13:51:40;;;;;;;6.85;2.67;;;38.90;62.20;;;;;;5036833;28;20044;-51
2022/10/07 13:54:50;;;;;;;4.32;2.42;;;40.40;61.20;;;;;;5037262;28;20048;-51
2022/10/07 13:57:56;;;;;;;4.82;2.05;;;40.90;61.20;;;;;;5039740;28;20040;-51
2022/10/07 14:01:03;;;;;;;3.28;2.15;;;41.10;61.30;;;;;;5046867;28;20037;-54
2022/10/07 14:04:13;;;;;;;4.35;2.58;;;40.90;61.20;;;;;;5036998;28;20040;-51
2022/10/07 14:07:18;;;;;;;4.00;2.47;;;40.50;61.00;;;;;;5040624;28;20411;-50
2022/10/07 14:10:28;;;;;;;4.25;2.70;;;38.90;61.80;;;;;;5039749;28;20056;-53
2022/10/07 14:13:34;;;;;;;2.72;2.13;;;38.80;61.20;;;;;;5035459;28;20044;-51
2022/10/07 14:16:37;;;;;;;5.10;2.40;;;38.60;63.00;;;;;;5040355;28;20660;-51
2022/10/07 14:19:42;;;;;;;6.35;2.63;;;38.60;62.90;;;;;;5039897;28;20056;-51
2022/10/07 14:23:14;;;;;;;3.63;2.42;;;38.40;64.00;;;;;;5042697;28;20037;-50
2022/10/07 14:26:19;;;;;;;3.70;2.42;;;38.40;64.10;;;;;;5048685;28;20048;-51
2022/10/07 14:29:34;;;;;;;5.00;2.53;;;38.80;63.50;;;;;;5040818;28;20052;-50
2022/10/07 14:36:15;;;;;;;5.32;2.58;;;37.50;62.80;;;;;;5046051;28;20052;-51
2022/10/07 14:39:29;;;;;;;4.93;2.65;;;37.60;64.00;;;;;;5052131;28;20684;-49
2022/10/07 14:42:35;;;;;;;4.78;3.20;;;36.60;65.40;;;;;;5043680;28;20033;-50
2022/10/07 14:45:39;;;;;;;4.93;3.30;;;36.30;66.20;;;;;;5045143;28;20036;-51
2022/10/07 14:48:43;;;;;;;6.55;3.00;;;35.90;66.60;;;;;;5040415;28;20049;-50
2022/10/07 14:51:49;;;;;;;5.72;3.38;;;35.30;66.90;;;;;;5043824;28;20048;-50
2022/10/07 14:54:58;;;;;;;5.93;3.53;;;34.30;70.40;;;;;;5036621;28;20056;-50
2022/10/07 14:58:03;;;;;;;6.80;3.92;;;33.90;69.90;;;;;;5041115;28;20047;-49
2022/10/07 15:01:07;;;;;;;6.95;4.05;;;33.90;70.10;;;;;;5035618;28;20044;-50
2022/10/07 15:04:11;;;;;;;7.03;3.92;;;33.70;70.70;;;;;;5038082;28;21628;-50
2022/10/07 15:07:16;;;;;;;5.60;4.05;;;33.40;72.30;;;;;;5038487;28;20047;-49
2022/10/07 15:10:24;;;;;;;7.30;4.28;;;32.80;72.20;;;;;;5038381;28;20048;-50
2022/10/07 15:13:28;;;;;;;6.82;3.92;;;32.50;72.40;;;;;;5042673;28;20048;-49
2022/10/07 15:16:32;;;;;;;5.22;3.97;;;32.10;73.70;;;;;;5033206;28;20048;-50
2022/10/07 15:19:36;;;;;;;6.88;4.68;;;32.00;74.30;;;;;;5042202;28;20048;-50
2022/10/07 15:22:41;;;;;;;10.25;5.07;;;31.70;73.80;;;;;;5038351;28;20033;-50
2022/10/07 15:25:45;;;;;;;7.00;4.30;;;31.00;75.30;;;;;;5050135;28;20984;-50
2022/10/07 15:28:55;;;;;;;10.40;5.40;;;30.80;75.60;;;;;;5043194;28;20126;-49
2022/10/07 15:31:59;;;;;;;6.47;4.75;;;30.40;76.50;;;;;;5041504;28;20044;-52
2022/10/07 15:35:04;;;;;;;9.07;4.55;;;30.30;77.30;;;;;;5041056;28;20399;-50
2022/10/07 15:38:08;;;;;;;10.63;4.97;;;29.40;78.80;;;;;;5038251;28;20039;-50
2022/10/07 15:41:28;;;;;;;7.40;4.88;;;28.90;80.40;;;;;;5048152;28;20036;-49
2022/10/07 15:44:32;;;;;;;8.63;4.93;;;28.70;81.00;;;;;;5031275;28;20553;-49
2022/10/07 15:47:37;;;;;;;8.75;4.80;;;28.70;81.00;;;;;;5045129;28;20048;-50
2022/10/07 15:50:49;;;;;;;8.35;5.15;;;28.60;81.60;;;;;;5046453;28;20041;-49
2022/10/07 15:53:53;;;;;;;9.70;5.40;;;28.50;81.80;;;;;;5044760;28;20033;-50
2022/10/07 15:56:57;;;;;;;9.15;5.13;;;28.00;83.10;;;;;;5047689;28;20043;-49
2022/10/07 16:00:03;;;;;;;6.18;4.72;;;27.80;83.50;;;;;;5048380;28;20048;-49
2022/10/07 16:03:16;;;;;;;9.35;5.68;;;27.60;83.90;;;;;;5045592;28;20078;-49
2022/10/07 16:06:23;;;;;;;6.50;5.13;;;27.30;84.80;;;;;;5038882;28;20411;-49
2022/10/07 16:09:27;;;;;;;7.78;5.10;;;27.10;85.40;;;;;;5043172;28;20044;-49
2022/10/07 16:12:32;;;;;;;9.70;5.30;;;26.80;86.30;;;;;;5050411;28;20419;-49
2022/10/07 16:15:36;;;;;;;10.52;5.32;;;26.30;87.10;;;;;;5049638;28;20036;-51
2022/10/07 16:18:42;;;;;;;8.07;5.32;;;26.00;88.00;;;;;;5050068;28;20412;-51
2022/10/07 16:21:46;;;;;;;9.15;5.20;;;25.90;89.80;;;;;;5050301;28;20032;-51
2022/10/07 16:24:54;;;;;;;9.95;5.20;;;25.80;90.20;;;;;;5050028;28;20064;-51
2022/10/07 16:31:23;;;;;;;7.90;5.00;;;25.40;90.30;;;;;;5050039;28;20049;-50
2022/10/07 16:34:28;;;;;;;6.35;4.93;;;25.30;90.90;;;;;;5049844;28;20044;-50
2022/10/07 16:37:33;;;;;;;9.68;5.80;;;25.20;92.00;;;;;;5049383;28;20048;-51